createdAt,value
2023-02-16T00:01:53.323Z,98127.19
2023-02-16T00:04:21.531Z,98117.41
2023-02-16T00:06:49.402Z,98121.56
2023-02-16T00:09:16.983Z,98130.16
2023-02-16T00:12:02.775Z,98135.78
2023-02-16T00:14:29.590Z,98133.34
2023-02-16T00:16:57.814Z,98135.28
2023-02-16T00:19:29.874Z,98129.91
2023-02-16T00:21:58.692Z,98140.44
2023-02-16T00:24:26.807Z,98132.88
2023-02-16T00:26:53.939Z,98130.66
2023-02-16T00:29:21.540Z,98138.25
2023-02-16T00:31:48.945Z,98131.88
2023-02-16T00:34:57.095Z,98134.31
2023-02-16T00:37:23.894Z,98137.53
2023-02-16T00:39:50.628Z,98128.66
2023-02-16T00:42:20.325Z,98125.97
2023-02-16T00:44:49.301Z,98128.69
2023-02-16T00:47:20.220Z,98123.06
2023-02-16T00:49:52.429Z,98127.72
2023-02-16T00:52:25.168Z,98127.22
2023-02-16T00:54:52.371Z,98127.47
2023-02-16T00:57:19.316Z,98122.56
2023-02-16T00:59:47.306Z,98123.06
2023-02-16T01:02:14.429Z,98118.91
2023-02-16T01:04:42.341Z,98124.53
2023-02-16T01:07:34.938Z,98117.66
2023-02-16T01:10:20.348Z,98116.22
2023-02-16T01:12:47.144Z,98113.25
2023-02-16T01:15:15.441Z,98124.53
2023-02-16T01:17:42.164Z,98127.22
2023-02-16T01:20:17.697Z,98126.72
2023-02-16T01:22:44.732Z,98130.66
2023-02-16T01:25:12.075Z,98128.44
2023-02-16T01:27:39.265Z,98131.88
2023-02-16T01:30:07.768Z,98135.31
2023-02-16T01:32:34.681Z,98130.66
2023-02-16T01:35:01.453Z,98127.94
2023-02-16T01:37:29.325Z,98125.50
2023-02-16T01:39:56.002Z,98126.97
2023-02-16T01:42:52.007Z,98131.38
2023-02-16T01:45:29.853Z,98121.84
2023-02-16T01:48:03.292Z,98115.94
2023-02-16T01:51:02.147Z,98123.28
2023-02-16T01:53:41.890Z,98120.38
2023-02-16T01:56:22.061Z,98116.19
2023-02-16T01:58:55.461Z,98107.38
2023-02-16T02:02:04.531Z,98103.69
2023-02-16T02:05:02.690Z,98104.19
2023-02-16T02:07:37.310Z,98103.94
2023-02-16T02:10:15.765Z,98098.06
2023-02-16T02:13:03.428Z,98090.97
2023-02-16T02:15:32.318Z,98101.97
2023-02-16T02:17:59.218Z,98102.97
2023-02-16T02:21:13.204Z,98101.97
2023-02-16T02:23:49.416Z,98101.75
2023-02-16T02:26:34.864Z,98096.84
2023-02-16T02:29:25.988Z,98102.47
2023-02-16T02:31:56.174Z,98089.72
2023-02-16T02:34:47.015Z,98087.25
2023-02-16T02:37:27.504Z,98080.69
2023-02-16T02:40:26.657Z,98080.19
2023-02-16T02:43:01.021Z,98072.34
2023-02-16T02:45:42.881Z,98079.47
2023-02-16T02:48:09.965Z,98079.69
2023-02-16T02:51:10.866Z,98077.50
2023-02-16T02:53:47.770Z,98080.91
2023-02-16T02:56:35.103Z,98078.44
2023-02-16T02:59:24.036Z,98093.13
2023-02-16T03:01:55.228Z,98090.94
2023-02-16T03:04:26.003Z,98094.84
2023-02-16T03:06:55.088Z,98101.44
2023-02-16T03:09:22.016Z,98099.75
2023-02-16T03:12:08.376Z,98099.75
2023-02-16T03:14:43.390Z,98101.19
2023-02-16T03:17:35.476Z,98094.56
2023-02-16T03:20:24.016Z,98092.59
2023-02-16T03:23:09.971Z,98087.47
2023-02-16T03:25:57.224Z,98092.84
2023-02-16T03:28:45.198Z,98095.50
2023-02-16T03:31:15.830Z,98093.31
2023-02-16T03:33:43.042Z,98092.34
2023-02-16T03:36:09.939Z,98099.41
2023-02-16T03:38:37.772Z,98097.44
2023-02-16T03:41:05.457Z,98102.81
2023-02-16T03:43:32.841Z,98099.41
2023-02-16T03:45:59.578Z,98094.50
2023-02-16T03:48:26.341Z,98102.31
2023-02-16T03:50:53.065Z,98108.69
2023-02-16T03:53:19.855Z,98110.38
2023-02-16T03:55:47.903Z,98098.41
2023-02-16T03:58:17.144Z,98103.03
2023-02-16T04:00:44.158Z,98103.31
2023-02-16T04:03:10.948Z,98095.22
2023-02-16T04:05:37.954Z,98091.06
2023-02-16T04:08:05.525Z,98099.16
2023-02-16T04:10:32.545Z,98090.06
2023-02-16T04:12:59.463Z,98096.69
2023-02-16T04:15:27.402Z,98104.50
2023-02-16T04:17:54.299Z,98111.34
2023-02-16T04:20:24.911Z,98098.34
2023-02-16T04:22:51.775Z,98098.84
2023-02-16T04:25:18.999Z,98090.97
2023-02-16T04:27:46.580Z,98090.75
2023-02-16T04:30:15.930Z,98098.06
2023-02-16T04:32:42.985Z,98096.63
2023-02-16T04:35:09.894Z,98099.09
2023-02-16T04:37:36.775Z,98088.56
2023-02-16T04:40:04.744Z,98089.06
2023-02-16T04:42:31.681Z,98098.06
2023-02-16T04:44:58.346Z,98086.84
2023-02-16T04:47:28.688Z,98085.59
2023-02-16T04:49:55.510Z,98092.22
2023-02-16T04:52:22.172Z,98101.28
2023-02-16T04:54:48.911Z,98098.31
2023-02-16T04:57:16.384Z,98099.31
2023-02-16T04:59:43.087Z,98101.25
2023-02-16T05:02:09.747Z,98099.53
2023-02-16T05:04:36.718Z,98098.28
2023-02-16T05:07:03.352Z,98093.63
2023-02-16T05:09:30.075Z,98091.66
2023-02-16T05:12:15.489Z,98091.94
2023-02-16T05:14:42.236Z,98089.03
2023-02-16T05:17:15.180Z,98096.63
2023-02-16T05:19:43.604Z,98098.78
2023-02-16T05:22:10.885Z,98091.44
2023-02-16T05:24:37.832Z,98097.28
2023-02-16T05:27:06.499Z,98093.88
2023-02-16T05:29:33.780Z,98089.72
2023-02-16T05:32:02.642Z,98099.47
2023-02-16T05:34:31.593Z,98099.97
2023-02-16T05:36:58.359Z,98095.81
2023-02-16T05:39:25.129Z,98096.28
2023-02-16T05:41:51.895Z,98093.84
2023-02-16T05:44:18.652Z,98087.25
2023-02-16T05:46:46.576Z,98093.59
2023-02-16T05:49:14.497Z,98098.75
2023-02-16T05:51:41.686Z,98097.53
2023-02-16T05:54:10.694Z,98100.47
2023-02-16T05:56:37.424Z,98109.75
2023-02-16T05:59:04.170Z,98108.03
2023-02-16T06:01:30.814Z,98107.75
2023-02-16T06:03:57.625Z,98107.03
2023-02-16T06:06:24.372Z,98109.25
2023-02-16T06:08:51.316Z,98109.47
2023-02-16T06:11:36.096Z,98113.09
2023-02-16T06:14:21.536Z,98108.47
2023-02-16T06:16:49.699Z,98108.47
2023-02-16T06:19:17.556Z,98105.78
2023-02-16T06:21:44.547Z,98108.47
2023-02-16T06:24:12.984Z,98112.84
2023-02-16T06:26:39.811Z,98104.31
2023-02-16T06:29:06.715Z,98118.47
2023-02-16T06:31:36.242Z,98122.63
2023-02-16T06:34:04.188Z,98121.16
2023-02-16T06:36:31.397Z,98135.09
2023-02-16T06:38:58.304Z,98123.81
2023-02-16T06:41:40.469Z,98120.41
2023-02-16T06:44:12.388Z,98122.84
2023-02-16T06:46:40.828Z,98125.03
2023-02-16T06:49:07.817Z,98120.88
2023-02-16T06:51:34.612Z,98124.53
2023-02-16T06:54:02.583Z,98128.44
2023-02-16T06:56:29.406Z,98120.63
2023-02-16T06:58:56.035Z,98128.97
2023-02-16T07:01:23.555Z,98129.69
2023-02-16T07:03:50.835Z,98139.94
2023-02-16T07:06:17.931Z,98134.03
2023-02-16T07:08:44.708Z,98144.03
2023-02-16T07:11:11.879Z,98140.63
2023-02-16T07:13:38.635Z,98144.03
2023-02-16T07:16:06.484Z,98143.31
2023-02-16T07:18:33.868Z,98141.13
2023-02-16T07:21:00.831Z,98138.91
2023-02-16T07:23:27.913Z,98140.09
2023-02-16T07:25:54.644Z,98135.97
2023-02-16T07:28:21.352Z,98141.88
2023-02-16T07:30:48.230Z,98143.34
2023-02-16T07:33:15.613Z,98147.78
2023-02-16T07:35:42.688Z,98150.72
2023-02-16T07:38:09.892Z,98155.63
2023-02-16T07:40:36.649Z,98158.56
2023-02-16T07:43:04.835Z,98152.69
2023-02-16T07:45:35.256Z,98154.44
2023-02-16T07:48:02.549Z,98150.53
2023-02-16T07:50:29.256Z,98153.97
2023-02-16T07:52:56.024Z,98158.84
2023-02-16T07:55:22.667Z,98157.66
2023-02-16T07:57:52.926Z,98157.91
2023-02-16T08:00:20.244Z,98155.47
2023-02-16T08:02:47.026Z,98155.97
2023-02-16T08:05:13.901Z,98155.28
2023-02-16T08:07:41.912Z,98147.72
2023-02-16T08:10:09.526Z,98156.78
2023-02-16T08:12:37.440Z,98153.63
2023-02-16T08:15:04.808Z,98152.63
2023-02-16T08:17:31.613Z,98158.28
2023-02-16T08:19:58.350Z,98161.97
2023-02-16T08:22:25.036Z,98164.44
2023-02-16T08:24:51.840Z,98170.78
2023-02-16T08:27:18.560Z,98177.19
2023-02-16T08:29:45.738Z,98172.03
2023-02-16T08:32:13.447Z,98182.31
2023-02-16T08:34:42.950Z,98173.53
2023-02-16T08:37:12.467Z,98178.44
2023-02-16T08:39:40.054Z,98180.16
2023-02-16T08:42:06.848Z,98168.69
2023-02-16T08:44:33.817Z,98168.47
2023-02-16T08:47:02.758Z,98170.44
2023-02-16T08:49:29.571Z,98164.06
2023-02-16T08:51:58.478Z,98174.13
2023-02-16T08:54:28.098Z,98171.22
2023-02-16T08:56:55.765Z,98171.22
2023-02-16T08:59:25.508Z,98169.78
2023-02-16T09:01:53.208Z,98171.47
2023-02-16T09:04:20.294Z,98178.59
2023-02-16T09:06:48.565Z,98177.88
2023-02-16T09:09:15.761Z,98176.41
2023-02-16T09:11:43.127Z,98188.44
2023-02-16T09:14:10.539Z,98179.63
2023-02-16T09:16:43.806Z,98182.81
2023-02-16T09:19:10.946Z,98175.50
2023-02-16T09:21:37.637Z,98165.19
2023-02-16T09:24:05.254Z,98173.75
2023-02-16T09:26:34.447Z,98164.72
2023-02-16T09:29:02.259Z,98165.44
2023-02-16T09:31:32.707Z,98163.72
2023-02-16T09:34:04.140Z,98158.59
2023-02-16T09:36:31.965Z,98163.25
2023-02-16T09:38:59.573Z,98160.75
2023-02-16T09:42:05.266Z,98181.34
2023-02-16T09:45:11.628Z,98175.09
2023-02-16T09:47:41.025Z,98176.75
2023-02-16T09:50:50.327Z,98178.91
2023-02-16T09:53:21.635Z,98182.56
2023-02-16T09:56:10.086Z,98184.28
2023-02-16T09:58:45.476Z,98176.38
2023-02-16T10:01:33.839Z,98178.31
2023-02-16T10:04:12.101Z,98180.22
2023-02-16T10:06:58.968Z,98174.75
2023-02-16T10:09:27.384Z,98166.00
2023-02-16T10:12:08.154Z,98178.22
2023-02-16T10:14:34.842Z,98169.25
2023-02-16T10:17:07.756Z,98169.72
2023-02-16T10:19:59.698Z,98169.81
2023-02-16T10:22:36.397Z,98172.16
2023-02-16T10:25:12.427Z,98173.69
2023-02-16T10:27:42.095Z,98163.16
2023-02-16T10:30:17.443Z,98170.66
2023-02-16T10:33:14.398Z,98166.81
2023-02-16T10:35:50.164Z,98164.19
2023-02-16T10:38:34.343Z,98161.31
2023-02-16T10:41:04.387Z,98162.88
2023-02-16T10:43:37.516Z,98164.91
2023-02-16T10:46:06.056Z,98161.63
2023-02-16T10:48:33.096Z,98159.25
2023-02-16T10:51:04.357Z,98155.44
2023-02-16T10:53:39.685Z,98156.22
2023-02-16T10:56:49.611Z,98148.19
2023-02-16T10:59:30.606Z,98156.69
2023-02-16T11:01:59.130Z,98163.06
2023-02-16T11:04:34.449Z,98168.94
2023-02-16T11:07:03.863Z,98163.50
2023-02-16T11:09:30.796Z,98157.25
2023-02-16T11:11:58.023Z,98157.25
2023-02-16T11:14:30.387Z,98159.44
2023-02-16T11:17:12.270Z,98149.19
2023-02-16T11:19:40.373Z,98153.03
2023-02-16T11:22:10.930Z,98149.19
2023-02-16T11:24:38.466Z,98141.09
2023-02-16T11:27:15.743Z,98138.69
2023-02-16T11:29:42.521Z,98139.53
2023-02-16T11:32:12.034Z,98140.31
2023-02-16T11:34:50.340Z,98133.50
2023-02-16T11:37:29.138Z,98127.19
2023-02-16T11:39:58.664Z,98127.50
2023-02-16T11:42:40.450Z,98130.22
2023-02-16T11:45:08.280Z,98130.22
2023-02-16T11:47:38.153Z,98132.59
2023-02-16T11:50:27.079Z,98128.09
2023-02-16T11:52:58.185Z,98131.22
2023-02-16T11:55:28.851Z,98133.41
2023-02-16T11:57:57.056Z,98131.38
2023-02-16T12:00:24.700Z,98132.94
2023-02-16T12:03:16.830Z,98132.44
2023-02-16T12:05:43.543Z,98126.88
2023-02-16T12:08:23.496Z,98130.53
2023-02-16T12:11:19.442Z,98123.69
2023-02-16T12:14:15.874Z,98118.47
2023-02-16T12:17:13.167Z,98117.78
2023-02-16T12:19:42.850Z,98111.28
2023-02-16T12:22:49.379Z,98116.72
2023-02-16T12:25:25.565Z,98111.13
2023-02-16T12:28:05.120Z,98107.56
2023-02-16T12:30:46.303Z,98107.00
2023-02-16T12:33:49.421Z,98093.50
2023-02-16T12:36:47.181Z,98098.44
2023-02-16T12:39:31.193Z,98098.44
2023-02-16T12:42:35.187Z,98096.50
2023-02-16T12:45:08.482Z,98082.00
2023-02-16T12:47:40.045Z,98077.09
2023-02-16T12:50:16.963Z,98076.00
2023-02-16T12:52:48.480Z,98070.41
2023-02-16T12:55:20.692Z,98077.91
2023-02-16T12:58:02.935Z,98070.81
2023-02-16T13:00:41.893Z,98069.03
2023-02-16T13:03:15.234Z,98073.59
2023-02-16T13:05:42.394Z,98071.44
2023-02-16T13:08:25.458Z,98072.38
2023-02-16T13:10:56.662Z,98065.63
2023-02-16T13:13:27.467Z,98057.09
2023-02-16T13:16:24.117Z,98052.75
2023-02-16T13:18:57.250Z,98061.47
2023-02-16T13:21:50.520Z,98062.44
2023-02-16T13:24:46.679Z,98053.72
2023-02-16T13:27:22.500Z,98047.16
2023-02-16T13:29:56.120Z,98048.09
2023-02-16T13:32:32.047Z,98038.84
2023-02-16T13:35:16.517Z,98040.66
2023-02-16T13:37:59.068Z,98039.56
2023-02-16T13:40:41.037Z,98053.41
2023-02-16T13:43:15.134Z,98051.56
2023-02-16T13:45:44.552Z,98044.28
2023-02-16T13:48:31.677Z,98045.03
2023-02-16T13:51:01.302Z,98040.84
2023-02-16T13:53:34.719Z,98039.38
2023-02-16T13:56:17.759Z,98035.91
2023-02-16T13:58:44.568Z,98042.09
2023-02-16T14:01:34.261Z,98035.38
2023-02-16T14:04:02.268Z,98025.22
2023-02-16T14:06:38.113Z,98032.13
2023-02-16T14:09:11.132Z,98044.66
2023-02-16T14:11:53.321Z,98048.31
2023-02-16T14:14:36.924Z,98043.41
2023-02-16T14:17:22.432Z,98034.50
2023-02-16T14:19:55.281Z,98035.22
2023-02-16T14:22:48.464Z,98022.81
2023-02-16T14:25:22.279Z,98033.00
2023-02-16T14:27:54.113Z,98029.75
2023-02-16T14:30:39.224Z,98029.38
2023-02-16T14:33:18.084Z,98038.13
2023-02-16T14:35:46.103Z,98039.41
2023-02-16T14:38:33.792Z,98029.03
2023-02-16T14:41:02.570Z,98021.03
2023-02-16T14:43:47.109Z,98013.00
2023-02-16T14:46:35.975Z,98011.56
2023-02-16T14:49:50.987Z,98014.84
2023-02-16T14:52:37.131Z,98017.41
2023-02-16T14:55:30.245Z,98016.66
2023-02-16T14:58:15.997Z,98018.66
2023-02-16T15:00:48.344Z,98015.94
2023-02-16T15:03:22.254Z,98014.66
2023-02-16T15:06:04.309Z,98014.66
2023-02-16T15:08:37.467Z,98022.13
2023-02-16T15:11:13.149Z,98023.41
2023-02-16T15:13:40.035Z,98014.66
2023-02-16T15:16:09.252Z,98016.13
2023-02-16T15:18:47.849Z,98018.50
2023-02-16T15:21:32.688Z,98017.22
2023-02-16T15:24:01.311Z,98017.38
2023-02-16T15:26:31.469Z,98008.47
2023-02-16T15:29:01.168Z,98011.41
2023-02-16T15:31:37.947Z,98012.47
2023-02-16T15:34:07.553Z,98018.66
2023-02-16T15:36:36.860Z,98017.38
2023-02-16T15:39:09.773Z,98015.03
2023-02-16T15:41:38.851Z,98017.75
2023-02-16T15:44:12.862Z,98024.47
2023-02-16T15:46:42.151Z,98026.69
2023-02-16T15:49:22.338Z,98025.94
2023-02-16T15:51:49.316Z,98024.13
2023-02-16T15:54:28.157Z,98015.38
2023-02-16T15:56:56.177Z,98022.13
2023-02-16T15:59:32.911Z,98019.38
2023-02-16T16:02:35.849Z,98014.66
2023-02-16T16:05:05.530Z,98006.31
2023-02-16T16:07:37.664Z,98015.75
2023-02-16T16:10:15.661Z,98014.31
2023-02-16T16:12:43.368Z,98007.03
2023-02-16T16:15:18.068Z,98008.31
2023-02-16T16:17:44.921Z,98008.84
2023-02-16T16:20:36.171Z,98000.69
2023-02-16T16:23:24.908Z,97997.94
2023-02-16T16:25:52.177Z,97992.28
2023-02-16T16:28:25.013Z,97991.41
2023-02-16T16:31:38.509Z,97991.19
2023-02-16T16:34:10.697Z,97994.66
2023-02-16T16:36:47.196Z,97997.94
2023-02-16T16:39:16.590Z,98001.38
2023-02-16T16:41:56.772Z,98012.84
2023-02-16T16:44:36.761Z,97999.75
2023-02-16T16:47:25.248Z,97992.81
2023-02-16T16:49:57.620Z,97994.31
2023-02-16T16:52:47.811Z,97993.22
2023-02-16T16:55:21.593Z,97996.47
2023-02-16T16:57:54.710Z,97997.56
2023-02-16T17:00:22.589Z,97999.56
2023-02-16T17:02:49.442Z,98003.56
2023-02-16T17:05:16.250Z,98008.47
2023-02-16T17:07:43.299Z,98007.03
2023-02-16T17:10:10.257Z,98011.00
2023-02-16T17:12:36.980Z,98010.81
2023-02-16T17:15:04.166Z,98008.66
2023-02-16T17:17:31.295Z,98008.66
2023-02-16T17:19:58.077Z,98007.72
2023-02-16T17:22:24.721Z,98013.19
2023-02-16T17:24:51.517Z,98022.63
2023-02-16T17:27:19.762Z,98028.09
2023-02-16T17:29:46.692Z,98019.72
2023-02-16T17:32:13.551Z,98026.47
2023-02-16T17:34:40.385Z,98015.34
2023-02-16T17:37:09.810Z,98023.53
2023-02-16T17:39:36.648Z,98018.63
2023-02-16T17:42:03.659Z,98012.44
2023-02-16T17:44:30.425Z,98024.63
2023-02-16T17:46:57.098Z,98025.88
2023-02-16T17:49:23.968Z,98028.09
2023-02-16T17:51:50.637Z,98030.09
2023-02-16T17:54:17.519Z,98021.34
2023-02-16T17:56:45.543Z,98033.16
2023-02-16T17:59:15.404Z,98032.44
2023-02-16T18:01:43.682Z,98030.97
2023-02-16T18:04:10.469Z,98024.81
2023-02-16T18:06:37.334Z,98024.63
2023-02-16T18:09:04.387Z,98029.88
2023-02-16T18:11:31.203Z,98027.69
2023-02-16T18:13:57.938Z,98024.97
2023-02-16T18:16:27.037Z,98023.53
2023-02-16T18:18:53.890Z,98021.69
2023-02-16T18:21:20.712Z,98024.44
2023-02-16T18:23:47.436Z,98024.44
2023-02-16T18:26:15.770Z,98031.16
2023-02-16T18:28:42.835Z,98028.25
2023-02-16T18:31:10.436Z,98025.31
2023-02-16T18:33:37.185Z,98030.78
2023-02-16T18:36:04.601Z,98033.16
2023-02-16T18:38:31.772Z,98028.44
2023-02-16T18:40:58.791Z,98030.97
2023-02-16T18:43:25.556Z,98030.97
2023-02-16T18:45:52.371Z,98037.88
2023-02-16T18:48:19.112Z,98039.34
2023-02-16T18:50:45.874Z,98048.25
2023-02-16T18:53:12.834Z,98048.06
2023-02-16T18:55:39.685Z,98045.34
2023-02-16T18:58:08.259Z,98050.78
2023-02-16T19:00:36.692Z,98051.31
2023-02-16T19:03:03.822Z,98052.59
2023-02-16T19:05:30.723Z,98060.75
2023-02-16T19:07:57.452Z,98054.59
2023-02-16T19:10:25.070Z,98051.13
2023-02-16T19:12:51.958Z,98063.47
2023-02-16T19:15:18.843Z,98061.47
2023-02-16T19:17:45.507Z,98064.94
2023-02-16T19:20:16.929Z,98058.59
2023-02-16T19:22:45.048Z,98062.75
2023-02-16T19:25:11.768Z,98067.47
2023-02-16T19:27:38.624Z,98068.94
2023-02-16T19:30:06.532Z,98062.22
2023-02-16T19:32:33.249Z,98065.13
2023-02-16T19:34:59.969Z,98065.88
2023-02-16T19:37:33.494Z,98072.03
2023-02-16T19:40:00.336Z,98055.13
2023-02-16T19:42:27.033Z,98059.88
2023-02-16T19:44:53.791Z,98071.31
2023-02-16T19:47:20.549Z,98065.13
2023-02-16T19:49:47.254Z,98062.59
2023-02-16T19:52:13.991Z,98068.44
2023-02-16T19:54:40.757Z,98058.97
2023-02-16T19:57:07.423Z,98057.69
2023-02-16T19:59:34.368Z,98065.88
2023-02-16T20:02:01.150Z,98067.88
2023-02-16T20:04:28.082Z,98068.59
2023-02-16T20:06:56.414Z,98064.63
2023-02-16T20:09:23.695Z,98059.34
2023-02-16T20:11:51.655Z,98064.81
2023-02-16T20:14:18.491Z,98065.53
2023-02-16T20:16:45.422Z,98067.72
2023-02-16T20:19:12.328Z,98067.19
2023-02-16T20:21:40.908Z,98065.19
2023-02-16T20:24:07.759Z,98065.19
2023-02-16T20:26:37.886Z,98067.38
2023-02-16T20:29:06.130Z,98068.09
2023-02-16T20:31:42.613Z,98064.63
2023-02-16T20:34:10.108Z,98064.09
2023-02-16T20:36:37.314Z,98070.09
2023-02-16T20:39:04.865Z,98073.53
2023-02-16T20:41:31.624Z,98071.38
2023-02-16T20:43:58.304Z,98069.38
2023-02-16T20:46:26.082Z,98071.91
2023-02-16T20:48:53.060Z,98070.63
2023-02-16T20:51:20.119Z,98067.53
2023-02-16T20:53:47.289Z,98070.25
2023-02-16T20:56:20.533Z,98071.53
2023-02-16T20:58:49.591Z,98073.31
2023-02-16T21:01:16.751Z,98067.69
2023-02-16T21:03:43.711Z,98067.53
2023-02-16T21:06:10.538Z,98068.78
2023-02-16T21:08:37.376Z,98070.59
2023-02-16T21:11:04.860Z,98067.88
2023-02-16T21:13:31.605Z,98058.41
2023-02-16T21:15:58.553Z,98053.50
2023-02-16T21:18:25.593Z,98047.13
2023-02-16T21:20:52.320Z,98059.31
2023-02-16T21:23:19.207Z,98062.59
2023-02-16T21:25:45.939Z,98065.47
2023-02-16T21:28:12.774Z,98067.66
2023-02-16T21:30:40.604Z,98069.88
2023-02-16T21:33:07.307Z,98073.66
2023-02-16T21:35:34.205Z,98066.03
2023-02-16T21:38:01.201Z,98064.38
2023-02-16T21:40:46.798Z,98068.19
2023-02-16T21:43:13.613Z,98058.72
2023-02-16T21:45:40.309Z,98060.72
2023-02-16T21:48:25.676Z,98063.06
2023-02-16T21:50:52.477Z,98057.59
2023-02-16T21:53:19.185Z,98053.41
2023-02-16T21:56:04.997Z,98049.78
2023-02-16T21:58:33.525Z,98050.66
2023-02-16T22:01:00.606Z,98053.91
2023-02-16T22:03:27.858Z,98050.28
2023-02-16T22:05:54.572Z,98050.44
2023-02-16T22:08:21.283Z,98048.44
2023-02-16T22:10:48.072Z,98054.44
2023-02-16T22:13:14.749Z,98057.91
2023-02-16T22:15:41.515Z,98063.16
2023-02-16T22:18:08.275Z,98059.16
2023-02-16T22:20:35.067Z,98064.78
2023-02-16T22:23:02.482Z,98067.50
2023-02-16T22:25:29.276Z,98058.78
2023-02-16T22:27:56.166Z,98056.59
2023-02-16T22:30:22.996Z,98049.50
2023-02-16T22:32:51.267Z,98058.78
2023-02-16T22:35:18.297Z,98053.53
2023-02-16T22:37:44.970Z,98057.00
2023-02-16T22:40:11.832Z,98055.00
2023-02-16T22:42:38.532Z,98047.72
2023-02-16T22:45:05.900Z,98044.28
2023-02-16T22:47:32.619Z,98055.91
2023-02-16T22:49:59.343Z,98056.09
2023-02-16T22:52:26.194Z,98054.28
2023-02-16T22:54:53.023Z,98056.13
2023-02-16T22:57:19.970Z,98057.03
2023-02-16T22:59:46.804Z,98058.69
2023-02-16T23:02:13.534Z,98059.41
2023-02-16T23:04:42.388Z,98059.81
2023-02-16T23:07:10.063Z,98055.25
2023-02-16T23:09:36.788Z,98061.81
2023-02-16T23:12:03.716Z,98055.09
2023-02-16T23:14:30.708Z,98064.19
2023-02-16T23:16:57.565Z,98065.09
2023-02-16T23:19:26.213Z,98060.59
2023-02-16T23:21:53.824Z,98055.31
2023-02-16T23:24:22.227Z,98064.41
2023-02-16T23:26:49.069Z,98062.06
2023-02-16T23:29:16.046Z,98048.63
2023-02-16T23:31:44.735Z,98052.78
2023-02-16T23:34:11.608Z,98052.97
2023-02-16T23:36:39.058Z,98057.69
2023-02-16T23:39:09.642Z,98061.16
2023-02-16T23:41:36.336Z,98062.06
2023-02-16T23:44:04.043Z,98069.72
2023-02-16T23:46:30.986Z,98074.63
2023-02-16T23:48:57.948Z,98076.09
2023-02-16T23:51:24.971Z,98072.63
2023-02-16T23:53:51.914Z,98079.00
2023-02-16T23:56:21.376Z,98088.63
2023-02-16T23:58:49.105Z,98096.28
